AirNav   Phillips 66 Aviation Fuel
 
 558 users online  

52XS Clear Lake Regional Medical Center Heliport
Webster, Texas, USA

GOING TO WEBSTER?


FAA INFORMATION EFFECTIVE 20 JULY 2017

Location

FAA Identifier: 52XS
Lat/Long: 29-32-29.1700N / 095-07-43.0100W
29-32.486167N / 095-07.716833W
29.5414361 / -95.1286139
(estimated)
Elevation: 51 ft. / 16 m (estimated)
Variation: 04E (2000)
Time zone: UTC -5 (UTC -6 during Standard Time)
Zip code: 77598

Heliport Operations

Heliport use: Private use, MEDICAL.
Activation date: 06/2002
Control tower: no
ARTCC: HOUSTON CENTER
FSS: MONTGOMERY COUNTY FLIGHT SERVICE STATION
Attendance: UNATNDD
Segmented circle: no

Heliport Communications

WX ASOS at LVJ (6 nm W): 118.525 (281-992-1853)
WX ASOS at HOU (10 nm NW): PHONE 713-847-1462
WX AWOS-3 at AXH (18 nm W): 123.625 (281-431-6572)

Nearby radio navigation aids

VOR radial/distance  VOR name  Freq  Var
HUBr127/10.3HOBBY VOR/DME117.1005E
MHFr262/19.9TRINITY VOR/DME113.6007E
VUHr314/21.3SCHOLES VOR/DME113.0006E
IAHr151/27.4HUMBLE VORTAC116.6005E

 
NDB name  Hdg/Dist  Freq  Var  ID
SANJAC197/8.234705EJPA .--- .--. .-
GALVESTON295/23.120608EGLS --. .-.. ...
NIXIN166/27.532605EBVP -... ...- .--.

Heliport Services

Runway Information

Helipad H1

Dimensions: 60 x 60 ft. / 18 x 18 m
Surface: concrete
Latitude: 29-32.486167N
Longitude: 095-07.716833W
Elevation: 51.0 ft.
Traffic pattern: leftleft

Heliport Ownership and Management from official FAA records

Ownership: Privately-owned
Owner: HCA-CLEAR LAKE MEDICAL CENTER
500 MEDICAL CENTER BLVD
WEBSTER, TX 77598
Phone 281-338-3181
Manager: RICHARD UNGER
500 MEDICAL CENTER BLVD
WEBSTER, TX 77598
Phone 281-338-3765

Instrument Procedures

There are no published instrument procedures at 52XS.

Some nearby airports with instrument procedures:

KEFD - Ellington Airport (4 nm N)
KLVJ - Pearland Regional Airport (6 nm W)
T41 - La Porte Municipal Airport (8 nm NE)
KHOU - William P Hobby Airport (10 nm NW)
KHPY - Baytown Airport (17 nm NE)
KAXH - Houston Southwest Airport (18 nm W)
54T - RWJ Airpark (20 nm NE)
 
Loc | Ops | Rwys | IFR | FBO | Links
Com | Nav | Svcs | Stats | Notes


 
Area around 52XS (Clear Lake Regional Medical Center Heliport)
 
Road maps at: MapQuest Bing Google
 
Aerial photo
No photo
 
Sectional chart

 
Airport distance calculator
Flying to Clear Lake Regional Medical Center Heliport? Find the distance to fly.

From to 52XS

Sunrise and sunset
Times for 23-Jul-2017
 Local
(UTC-5)
 Zulu
(UTC)
Morning civil twilight06:1011:10
Sunrise06:3611:36
Sunset20:1801:18
Evening civil twilight20:4401:44

Current date and time
Zulu (UTC)  24-Jul-2017 04:49:59
Local (UTC-5)  23-Jul-2017 23:49:59
 
METAR
KEFD 
4nm NW 
240350Z 17005KT 10SM SCT170 BKN250 29/23 A2993
KLVJ 
7nm W 
240353Z AUTO 18007KT 9SM CLR 29/23 A2992 RMK AO2 SLP132 T02940233 $
KHOU 
10nm NW 
240353Z 19006KT 10SM SCT190 BKN250 29/23 A2991 RMK AO2 SLP134 T02890233
KAXH 
18nm W 
240435Z AUTO 00000KT 10SM CLR 25/23 A2994 RMK AO2 T02520233
TAF
KHOU 
10nm NW 
232102Z 2321/2418 21010KT P6SM VCTS BKN045CB BKN250 FM240100 19007KT P6SM FEW035 BKN150 FM241000 21004KT P6SM SCT020 OVC120 FM241500 22009KT P6SM SCT050
NOTAMs
Click for the latest NOTAMs
NOTAMs are issued by the DoD/FAA and will open in a separate window not controlled by AirNav.

 

 
 

Would you like to see your business listed on this page?

 If your business provides an interesting product or service to pilots, flight crews, aircraft, or users of the Clear Lake Regional Medical Center Heliport, you should consider listing it here.  To start the listing process, click on the button below
 
Add a business
 

Other Pages about Clear Lake Regional Medical Center Heliport

Update a link
 
Copyright © AirNav, LLC. All rights reserved. Privacy Policy  Contact